sensor_id;sensor_type;location;lat;lon;timestamp;P1;durP1;ratioP1;P2;durP2;ratioP2
17696;SDS011;8967;47.984;7.842;2022-09-14T00:02:07;5.10;;;2.50;;
17696;SDS011;8967;47.984;7.842;2022-09-14T00:04:34;9.70;;;2.50;;
17696;SDS011;8967;47.984;7.842;2022-09-14T00:07:01;5.55;;;2.55;;
17696;SDS011;8967;47.984;7.842;2022-09-14T00:09:28;5.03;;;2.50;;
17696;SDS011;8967;47.984;7.842;2022-09-14T00:11:55;5.88;;;2.47;;
17696;SDS011;8967;47.984;7.842;2022-09-14T00:14:25;3.25;;;2.30;;
17696;SDS011;8967;47.984;7.842;2022-09-14T00:16:54;2.30;;;2.10;;
17696;SDS011;8967;47.984;7.842;2022-09-14T00:19:21;3.13;;;2.20;;
17696;SDS011;8967;47.984;7.842;2022-09-14T00:21:50;6.20;;;2.50;;
17696;SDS011;8967;47.984;7.842;2022-09-14T00:24:18;2.15;;;2.03;;
17696;SDS011;8967;47.984;7.842;2022-09-14T00:26:45;5.50;;;2.53;;
17696;SDS011;8967;47.984;7.842;2022-09-14T00:29:12;2.53;;;2.33;;
17696;SDS011;8967;47.984;7.842;2022-09-14T00:31:41;2.55;;;2.35;;
17696;SDS011;8967;47.984;7.842;2022-09-14T00:34:10;2.53;;;2.30;;
17696;SDS011;8967;47.984;7.842;2022-09-14T00:36:39;3.65;;;2.20;;
17696;SDS011;8967;47.984;7.842;2022-09-14T00:39:09;3.08;;;2.10;;
17696;SDS011;8967;47.984;7.842;2022-09-14T00:41:37;5.53;;;2.75;;
17696;SDS011;8967;47.984;7.842;2022-09-14T00:44:06;4.00;;;2.17;;
17696;SDS011;8967;47.984;7.842;2022-09-14T00:46:55;2.75;;;2.00;;
17696;SDS011;8967;47.984;7.842;2022-09-14T00:49:25;2.70;;;2.20;;
17696;SDS011;8967;47.984;7.842;2022-09-14T00:52:01;4.93;;;2.20;;
17696;SDS011;8967;47.984;7.842;2022-09-14T00:54:32;3.67;;;2.42;;
17696;SDS011;8967;47.984;7.842;2022-09-14T00:57:00;5.13;;;2.58;;
17696;SDS011;8967;47.984;7.842;2022-09-14T00:59:29;6.78;;;2.40;;
17696;SDS011;8967;47.984;7.842;2022-09-14T01:02:00;3.85;;;2.30;;
17696;SDS011;8967;47.984;7.842;2022-09-14T01:04:27;3.92;;;2.42;;
17696;SDS011;8967;47.984;7.842;2022-09-14T01:06:58;7.10;;;2.42;;
17696;SDS011;8967;47.984;7.842;2022-09-14T01:09:33;2.70;;;2.47;;
17696;SDS011;8967;47.984;7.842;2022-09-14T01:12:09;2.25;;;2.05;;
17696;SDS011;8967;47.984;7.842;2022-09-14T01:14:46;2.45;;;2.17;;
17696;SDS011;8967;47.984;7.842;2022-09-14T01:17:20;3.47;;;2.42;;
17696;SDS011;8967;47.984;7.842;2022-09-14T01:20:01;3.92;;;2.13;;
17696;SDS011;8967;47.984;7.842;2022-09-14T01:22:38;4.20;;;2.50;;
17696;SDS011;8967;47.984;7.842;2022-09-14T01:25:26;6.07;;;2.55;;
17696;SDS011;8967;47.984;7.842;2022-09-14T01:28:11;4.53;;;2.25;;
17696;SDS011;8967;47.984;7.842;2022-09-14T01:30:41;5.70;;;2.67;;
17696;SDS011;8967;47.984;7.842;2022-09-14T01:33:12;2.95;;;2.70;;
17696;SDS011;8967;47.984;7.842;2022-09-14T01:35:42;2.97;;;2.70;;
17696;SDS011;8967;47.984;7.842;2022-09-14T01:38:14;2.83;;;2.30;;
17696;SDS011;8967;47.984;7.842;2022-09-14T01:40:44;7.07;;;2.35;;
17696;SDS011;8967;47.984;7.842;2022-09-14T01:43:18;4.15;;;2.50;;
17696;SDS011;8967;47.984;7.842;2022-09-14T01:45:50;3.67;;;2.47;;
17696;SDS011;8967;47.984;7.842;2022-09-14T01:48:34;2.33;;;2.03;;
17696;SDS011;8967;47.984;7.842;2022-09-14T01:51:08;3.08;;;2.30;;
17696;SDS011;8967;47.984;7.842;2022-09-14T01:53:40;2.97;;;2.50;;
17696;SDS011;8967;47.984;7.842;2022-09-14T01:56:13;5.60;;;2.75;;
17696;SDS011;8967;47.984;7.842;2022-09-14T01:58:46;2.97;;;2.67;;
17696;SDS011;8967;47.984;7.842;2022-09-14T02:01:19;5.53;;;2.63;;
17696;SDS011;8967;47.984;7.842;2022-09-14T02:03:52;4.72;;;2.60;;
17696;SDS011;8967;47.984;7.842;2022-09-14T02:06:26;3.10;;;2.40;;
17696;SDS011;8967;47.984;7.842;2022-09-14T02:08:56;4.93;;;2.53;;
17696;SDS011;8967;47.984;7.842;2022-09-14T02:11:26;4.15;;;2.75;;
17696;SDS011;8967;47.984;7.842;2022-09-14T02:13:55;3.55;;;2.50;;
17696;SDS011;8967;47.984;7.842;2022-09-14T02:16:22;6.07;;;2.40;;
17696;SDS011;8967;47.984;7.842;2022-09-14T02:18:52;4.38;;;2.80;;
17696;SDS011;8967;47.984;7.842;2022-09-14T02:21:21;4.60;;;2.78;;
17696;SDS011;8967;47.984;7.842;2022-09-14T02:23:52;6.05;;;2.80;;
17696;SDS011;8967;47.984;7.842;2022-09-14T02:26:19;4.22;;;2.70;;
17696;SDS011;8967;47.984;7.842;2022-09-14T02:28:48;5.93;;;3.17;;
17696;SDS011;8967;47.984;7.842;2022-09-14T02:31:25;3.88;;;2.50;;
17696;SDS011;8967;47.984;7.842;2022-09-14T02:34:00;4.38;;;2.30;;
17696;SDS011;8967;47.984;7.842;2022-09-14T02:36:35;4.00;;;2.70;;
17696;SDS011;8967;47.984;7.842;2022-09-14T02:39:13;4.55;;;2.55;;
17696;SDS011;8967;47.984;7.842;2022-09-14T02:41:49;2.90;;;2.42;;
17696;SDS011;8967;47.984;7.842;2022-09-14T02:44:22;5.65;;;2.63;;
17696;SDS011;8967;47.984;7.842;2022-09-14T02:46:59;7.13;;;2.60;;
17696;SDS011;8967;47.984;7.842;2022-09-14T02:49:32;7.70;;;3.00;;
17696;SDS011;8967;47.984;7.842;2022-09-14T02:52:05;5.57;;;3.00;;
17696;SDS011;8967;47.984;7.842;2022-09-14T02:54:41;6.53;;;2.90;;
17696;SDS011;8967;47.984;7.842;2022-09-14T02:57:13;2.63;;;2.42;;
17696;SDS011;8967;47.984;7.842;2022-09-14T02:59:42;3.50;;;3.20;;
17696;SDS011;8967;47.984;7.842;2022-09-14T03:02:10;6.40;;;2.88;;
17696;SDS011;8967;47.984;7.842;2022-09-14T03:04:37;3.95;;;2.92;;
17696;SDS011;8967;47.984;7.842;2022-09-14T03:07:04;8.13;;;3.20;;
17696;SDS011;8967;47.984;7.842;2022-09-14T03:09:31;6.65;;;3.30;;
17696;SDS011;8967;47.984;7.842;2022-09-14T03:11:58;8.68;;;3.67;;
17696;SDS011;8967;47.984;7.842;2022-09-14T03:14:25;8.30;;;3.40;;
17696;SDS011;8967;47.984;7.842;2022-09-14T03:16:51;5.70;;;3.17;;
17696;SDS011;8967;47.984;7.842;2022-09-14T03:19:20;6.43;;;3.25;;
17696;SDS011;8967;47.984;7.842;2022-09-14T03:21:47;5.93;;;3.20;;
17696;SDS011;8967;47.984;7.842;2022-09-14T03:24:14;6.40;;;2.97;;
17696;SDS011;8967;47.984;7.842;2022-09-14T03:26:40;10.30;;;3.70;;
17696;SDS011;8967;47.984;7.842;2022-09-14T03:29:07;6.40;;;3.80;;
17696;SDS011;8967;47.984;7.842;2022-09-14T03:31:37;4.03;;;3.08;;
17696;SDS011;8967;47.984;7.842;2022-09-14T03:34:04;6.70;;;3.30;;
17696;SDS011;8967;47.984;7.842;2022-09-14T03:36:34;7.03;;;3.03;;
17696;SDS011;8967;47.984;7.842;2022-09-14T03:39:01;6.45;;;2.75;;
17696;SDS011;8967;47.984;7.842;2022-09-14T03:41:30;4.75;;;2.75;;
17696;SDS011;8967;47.984;7.842;2022-09-14T03:43:57;3.88;;;2.65;;
17696;SDS011;8967;47.984;7.842;2022-09-14T03:46:24;6.07;;;3.00;;
17696;SDS011;8967;47.984;7.842;2022-09-14T03:48:52;4.90;;;2.72;;
17696;SDS011;8967;47.984;7.842;2022-09-14T03:51:19;5.97;;;2.90;;
17696;SDS011;8967;47.984;7.842;2022-09-14T03:53:48;6.75;;;2.70;;
17696;SDS011;8967;47.984;7.842;2022-09-14T03:56:15;6.45;;;2.95;;
17696;SDS011;8967;47.984;7.842;2022-09-14T03:58:46;3.25;;;2.78;;
17696;SDS011;8967;47.984;7.842;2022-09-14T04:01:15;3.80;;;2.85;;
17696;SDS011;8967;47.984;7.842;2022-09-14T04:03:45;5.80;;;2.67;;
17696;SDS011;8967;47.984;7.842;2022-09-14T04:06:13;4.65;;;2.80;;
17696;SDS011;8967;47.984;7.842;2022-09-14T04:08:41;6.35;;;3.08;;
17696;SDS011;8967;47.984;7.842;2022-09-14T04:11:10;3.35;;;2.85;;
17696;SDS011;8967;47.984;7.842;2022-09-14T04:13:42;3.22;;;2.83;;
17696;SDS011;8967;47.984;7.842;2022-09-14T04:16:10;5.28;;;2.83;;
17696;SDS011;8967;47.984;7.842;2022-09-14T04:18:37;3.60;;;2.90;;
17696;SDS011;8967;47.984;7.842;2022-09-14T04:21:14;5.55;;;2.67;;
17696;SDS011;8967;47.984;7.842;2022-09-14T04:23:42;5.20;;;3.10;;
17696;SDS011;8967;47.984;7.842;2022-09-14T04:26:11;4.40;;;2.53;;
17696;SDS011;8967;47.984;7.842;2022-09-14T04:28:40;2.85;;;2.58;;
17696;SDS011;8967;47.984;7.842;2022-09-14T04:31:07;9.15;;;2.80;;
17696;SDS011;8967;47.984;7.842;2022-09-14T04:33:35;4.03;;;2.80;;
17696;SDS011;8967;47.984;7.842;2022-09-14T04:36:04;4.20;;;2.72;;
17696;SDS011;8967;47.984;7.842;2022-09-14T04:38:33;4.50;;;2.75;;
17696;SDS011;8967;47.984;7.842;2022-09-14T04:41:03;5.25;;;3.00;;
17696;SDS011;8967;47.984;7.842;2022-09-14T04:43:34;3.05;;;2.75;;
17696;SDS011;8967;47.984;7.842;2022-09-14T04:46:02;3.40;;;2.80;;
17696;SDS011;8967;47.984;7.842;2022-09-14T04:48:30;7.10;;;3.05;;
17696;SDS011;8967;47.984;7.842;2022-09-14T04:51:00;2.67;;;2.33;;
17696;SDS011;8967;47.984;7.842;2022-09-14T04:53:28;4.05;;;2.83;;
17696;SDS011;8967;47.984;7.842;2022-09-14T04:56:00;5.90;;;2.97;;
17696;SDS011;8967;47.984;7.842;2022-09-14T04:58:28;3.50;;;3.20;;
17696;SDS011;8967;47.984;7.842;2022-09-14T05:01:00;4.63;;;3.10;;
17696;SDS011;8967;47.984;7.842;2022-09-14T05:03:28;5.03;;;2.75;;
17696;SDS011;8967;47.984;7.842;2022-09-14T05:05:55;5.03;;;3.10;;
17696;SDS011;8967;47.984;7.842;2022-09-14T05:08:29;3.45;;;2.70;;
17696;SDS011;8967;47.984;7.842;2022-09-14T05:10:57;5.28;;;3.10;;
17696;SDS011;8967;47.984;7.842;2022-09-14T05:13:24;3.03;;;2.70;;
17696;SDS011;8967;47.984;7.842;2022-09-14T05:15:51;3.95;;;3.00;;
17696;SDS011;8967;47.984;7.842;2022-09-14T05:18:19;5.95;;;3.00;;
17696;SDS011;8967;47.984;7.842;2022-09-14T05:20:46;4.00;;;2.65;;
17696;SDS011;8967;47.984;7.842;2022-09-14T05:23:13;2.95;;;2.55;;
17696;SDS011;8967;47.984;7.842;2022-09-14T05:25:40;3.70;;;2.50;;
17696;SDS011;8967;47.984;7.842;2022-09-14T05:28:09;3.38;;;2.88;;
17696;SDS011;8967;47.984;7.842;2022-09-14T05:30:37;3.35;;;2.90;;
17696;SDS011;8967;47.984;7.842;2022-09-14T05:33:05;4.95;;;3.38;;
17696;SDS011;8967;47.984;7.842;2022-09-14T05:35:33;4.55;;;2.95;;
17696;SDS011;8967;47.984;7.842;2022-09-14T05:38:00;3.67;;;2.65;;
17696;SDS011;8967;47.984;7.842;2022-09-14T05:40:27;3.50;;;3.20;;
17696;SDS011;8967;47.984;7.842;2022-09-14T05:42:53;4.00;;;3.00;;
17696;SDS011;8967;47.984;7.842;2022-09-14T05:45:20;6.80;;;3.38;;
17696;SDS011;8967;47.984;7.842;2022-09-14T05:47:47;6.03;;;3.80;;
17696;SDS011;8967;47.984;7.842;2022-09-14T05:50:14;6.38;;;3.80;;
17696;SDS011;8967;47.984;7.842;2022-09-14T05:52:42;7.22;;;3.10;;
17696;SDS011;8967;47.984;7.842;2022-09-14T05:55:09;4.80;;;2.83;;
17696;SDS011;8967;47.984;7.842;2022-09-14T05:57:36;7.68;;;3.40;;
17696;SDS011;8967;47.984;7.842;2022-09-14T06:00:03;3.13;;;2.92;;
17696;SDS011;8967;47.984;7.842;2022-09-14T06:02:37;3.80;;;3.20;;
17696;SDS011;8967;47.984;7.842;2022-09-14T06:05:04;7.57;;;3.10;;
17696;SDS011;8967;47.984;7.842;2022-09-14T06:07:31;5.75;;;2.80;;
17696;SDS011;8967;47.984;7.842;2022-09-14T06:10:00;8.43;;;4.20;;
17696;SDS011;8967;47.984;7.842;2022-09-14T06:12:27;5.75;;;2.95;;
17696;SDS011;8967;47.984;7.842;2022-09-14T06:14:54;4.60;;;3.33;;
17696;SDS011;8967;47.984;7.842;2022-09-14T06:17:23;4.70;;;3.00;;
17696;SDS011;8967;47.984;7.842;2022-09-14T06:19:53;5.20;;;3.20;;
17696;SDS011;8967;47.984;7.842;2022-09-14T06:22:20;7.07;;;2.60;;
17696;SDS011;8967;47.984;7.842;2022-09-14T06:24:46;3.08;;;2.72;;
17696;SDS011;8967;47.984;7.842;2022-09-14T06:27:15;4.60;;;3.00;;
17696;SDS011;8967;47.984;7.842;2022-09-14T06:29:42;3.70;;;2.63;;
17696;SDS011;8967;47.984;7.842;2022-09-14T06:32:09;6.63;;;2.65;;
17696;SDS011;8967;47.984;7.842;2022-09-14T06:34:35;4.35;;;2.83;;
17696;SDS011;8967;47.984;7.842;2022-09-14T06:37:02;2.88;;;2.58;;
17696;SDS011;8967;47.984;7.842;2022-09-14T06:39:29;4.43;;;2.88;;
17696;SDS011;8967;47.984;7.842;2022-09-14T06:41:56;4.65;;;2.90;;
17696;SDS011;8967;47.984;7.842;2022-09-14T06:44:28;5.00;;;2.70;;
17696;SDS011;8967;47.984;7.842;2022-09-14T06:46:55;7.47;;;2.95;;
17696;SDS011;8967;47.984;7.842;2022-09-14T06:49:22;3.55;;;2.50;;
17696;SDS011;8967;47.984;7.842;2022-09-14T06:51:49;4.72;;;2.92;;
17696;SDS011;8967;47.984;7.842;2022-09-14T06:54:21;4.28;;;2.97;;
17696;SDS011;8967;47.984;7.842;2022-09-14T06:56:49;5.82;;;2.83;;
17696;SDS011;8967;47.984;7.842;2022-09-14T06:59:16;6.28;;;2.70;;
17696;SDS011;8967;47.984;7.842;2022-09-14T07:01:45;4.22;;;3.00;;
17696;SDS011;8967;47.984;7.842;2022-09-14T07:04:14;6.10;;;2.75;;
17696;SDS011;8967;47.984;7.842;2022-09-14T07:06:41;6.30;;;2.97;;
17696;SDS011;8967;47.984;7.842;2022-09-14T07:09:09;4.78;;;2.90;;
17696;SDS011;8967;47.984;7.842;2022-09-14T07:11:37;5.75;;;2.65;;
17696;SDS011;8967;47.984;7.842;2022-09-14T07:14:04;4.68;;;2.80;;
17696;SDS011;8967;47.984;7.842;2022-09-14T07:16:32;7.50;;;2.65;;
17696;SDS011;8967;47.984;7.842;2022-09-14T07:19:02;3.58;;;2.70;;
17696;SDS011;8967;47.984;7.842;2022-09-14T07:21:31;6.97;;;2.85;;
17696;SDS011;8967;47.984;7.842;2022-09-14T07:23:59;2.90;;;2.45;;
17696;SDS011;8967;47.984;7.842;2022-09-14T07:26:27;9.15;;;2.83;;
17696;SDS011;8967;47.984;7.842;2022-09-14T07:28:55;7.32;;;2.70;;
17696;SDS011;8967;47.984;7.842;2022-09-14T07:31:24;4.53;;;2.45;;
17696;SDS011;8967;47.984;7.842;2022-09-14T07:33:53;3.10;;;2.50;;
17696;SDS011;8967;47.984;7.842;2022-09-14T07:36:24;4.93;;;2.70;;
17696;SDS011;8967;47.984;7.842;2022-09-14T07:38:52;7.38;;;2.60;;
17696;SDS011;8967;47.984;7.842;2022-09-14T07:41:20;6.30;;;2.60;;
17696;SDS011;8967;47.984;7.842;2022-09-14T07:43:48;7.28;;;2.50;;
17696;SDS011;8967;47.984;7.842;2022-09-14T07:46:15;3.00;;;2.60;;
17696;SDS011;8967;47.984;7.842;2022-09-14T07:48:43;4.90;;;2.30;;
17696;SDS011;8967;47.984;7.842;2022-09-14T07:51:12;4.25;;;2.30;;
17696;SDS011;8967;47.984;7.842;2022-09-14T07:53:41;5.43;;;2.92;;
17696;SDS011;8967;47.984;7.842;2022-09-14T07:56:10;4.32;;;2.53;;
17696;SDS011;8967;47.984;7.842;2022-09-14T07:58:37;6.57;;;2.38;;
17696;SDS011;8967;47.984;7.842;2022-09-14T08:01:06;5.72;;;2.55;;
17696;SDS011;8967;47.984;7.842;2022-09-14T08:03:36;5.95;;;2.40;;
17696;SDS011;8967;47.984;7.842;2022-09-14T08:06:05;6.72;;;2.20;;
17696;SDS011;8967;47.984;7.842;2022-09-14T08:08:34;8.88;;;2.75;;
17696;SDS011;8967;47.984;7.842;2022-09-14T08:11:05;5.88;;;2.63;;
17696;SDS011;8967;47.984;7.842;2022-09-14T08:13:35;4.07;;;2.40;;
17696;SDS011;8967;47.984;7.842;2022-09-14T08:16:03;2.35;;;1.92;;
17696;SDS011;8967;47.984;7.842;2022-09-14T08:18:31;6.20;;;2.63;;
17696;SDS011;8967;47.984;7.842;2022-09-14T08:21:01;6.00;;;2.60;;
17696;SDS011;8967;47.984;7.842;2022-09-14T08:23:29;4.15;;;2.10;;
17696;SDS011;8967;47.984;7.842;2022-09-14T08:26:00;9.60;;;2.45;;
17696;SDS011;8967;47.984;7.842;2022-09-14T08:28:29;4.07;;;2.45;;
17696;SDS011;8967;47.984;7.842;2022-09-14T08:31:00;3.55;;;2.28;;
17696;SDS011;8967;47.984;7.842;2022-09-14T08:33:29;4.65;;;2.63;;
17696;SDS011;8967;47.984;7.842;2022-09-14T08:35:57;4.65;;;2.40;;
17696;SDS011;8967;47.984;7.842;2022-09-14T08:38:24;3.35;;;2.80;;
17696;SDS011;8967;47.984;7.842;2022-09-14T08:40:51;5.25;;;2.83;;
17696;SDS011;8967;47.984;7.842;2022-09-14T08:43:18;8.43;;;2.63;;
17696;SDS011;8967;47.984;7.842;2022-09-14T08:45:49;7.35;;;2.75;;
17696;SDS011;8967;47.984;7.842;2022-09-14T08:48:21;5.80;;;2.28;;
17696;SDS011;8967;47.984;7.842;2022-09-14T08:50:51;6.55;;;2.55;;
17696;SDS011;8967;47.984;7.842;2022-09-14T08:53:19;6.75;;;2.42;;
17696;SDS011;8967;47.984;7.842;2022-09-14T08:55:47;6.95;;;2.45;;
17696;SDS011;8967;47.984;7.842;2022-09-14T08:58:20;6.07;;;2.60;;
17696;SDS011;8967;47.984;7.842;2022-09-14T09:00:58;7.43;;;2.63;;
17696;SDS011;8967;47.984;7.842;2022-09-14T09:03:44;7.45;;;2.65;;
17696;SDS011;8967;47.984;7.842;2022-09-14T09:06:26;7.75;;;2.60;;
17696;SDS011;8967;47.984;7.842;2022-09-14T09:09:02;6.38;;;2.50;;
17696;SDS011;8967;47.984;7.842;2022-09-14T09:11:35;3.75;;;2.60;;
17696;SDS011;8967;47.984;7.842;2022-09-14T09:14:07;5.75;;;2.70;;
17696;SDS011;8967;47.984;7.842;2022-09-14T09:16:43;4.82;;;2.35;;
17696;SDS011;8967;47.984;7.842;2022-09-14T09:19:15;4.47;;;3.08;;
17696;SDS011;8967;47.984;7.842;2022-09-14T09:21:45;4.28;;;2.60;;
17696;SDS011;8967;47.984;7.842;2022-09-14T09:24:16;6.18;;;2.80;;
17696;SDS011;8967;47.984;7.842;2022-09-14T09:26:53;5.13;;;2.83;;
17696;SDS011;8967;47.984;7.842;2022-09-14T09:29:20;4.90;;;2.60;;
17696;SDS011;8967;47.984;7.842;2022-09-14T09:32:10;6.05;;;2.53;;
17696;SDS011;8967;47.984;7.842;2022-09-14T09:34:43;4.18;;;2.40;;
17696;SDS011;8967;47.984;7.842;2022-09-14T09:37:22;5.63;;;2.22;;
17696;SDS011;8967;47.984;7.842;2022-09-14T09:39:50;3.95;;;2.58;;
17696;SDS011;8967;47.984;7.842;2022-09-14T09:42:19;4.32;;;2.67;;
17696;SDS011;8967;47.984;7.842;2022-09-14T09:44:55;3.70;;;2.45;;
17696;SDS011;8967;47.984;7.842;2022-09-14T09:47:34;4.68;;;2.60;;
17696;SDS011;8967;47.984;7.842;2022-09-14T09:50:05;6.30;;;2.47;;
17696;SDS011;8967;47.984;7.842;2022-09-14T09:52:47;5.13;;;2.70;;
17696;SDS011;8967;47.984;7.842;2022-09-14T09:55:16;6.63;;;2.40;;
17696;SDS011;8967;47.984;7.842;2022-09-14T09:57:44;6.13;;;2.28;;
17696;SDS011;8967;47.984;7.842;2022-09-14T10:00:19;4.43;;;2.20;;
17696;SDS011;8967;47.984;7.842;2022-09-14T10:02:49;3.78;;;2.20;;
17696;SDS011;8967;47.984;7.842;2022-09-14T10:05:18;5.28;;;2.38;;
17696;SDS011;8967;47.984;7.842;2022-09-14T10:07:50;6.63;;;2.15;;
17696;SDS011;8967;47.984;7.842;2022-09-14T10:10:22;2.63;;;2.40;;
17696;SDS011;8967;47.984;7.842;2022-09-14T10:12:52;2.42;;;2.15;;
17696;SDS011;8967;47.984;7.842;2022-09-14T10:15:21;3.72;;;2.30;;
17696;SDS011;8967;47.984;7.842;2022-09-14T10:20:43;7.95;;;2.85;;
17696;SDS011;8967;47.984;7.842;2022-09-14T10:23:30;13.80;;;4.15;;
17696;SDS011;8967;47.984;7.842;2022-09-14T10:26:17;18.27;;;3.63;;
17696;SDS011;8967;47.984;7.842;2022-09-14T10:28:47;11.95;;;2.97;;
17696;SDS011;8967;47.984;7.842;2022-09-14T10:31:17;6.78;;;3.00;;
17696;SDS011;8967;47.984;7.842;2022-09-14T10:33:52;5.57;;;2.95;;
17696;SDS011;8967;47.984;7.842;2022-09-14T10:36:23;5.43;;;2.92;;
17696;SDS011;8967;47.984;7.842;2022-09-14T10:38:55;6.70;;;2.67;;
17696;SDS011;8967;47.984;7.842;2022-09-14T10:41:27;5.07;;;2.80;;
17696;SDS011;8967;47.984;7.842;2022-09-14T10:47:16;6.18;;;2.80;;
17696;SDS011;8967;47.984;7.842;2022-09-14T10:50:06;5.43;;;2.80;;
17696;SDS011;8967;47.984;7.842;2022-09-14T10:52:49;4.45;;;2.90;;
17696;SDS011;8967;47.984;7.842;2022-09-14T10:55:28;7.40;;;2.85;;
17696;SDS011;8967;47.984;7.842;2022-09-14T10:58:11;6.55;;;3.22;;
17696;SDS011;8967;47.984;7.842;2022-09-14T11:00:54;5.15;;;2.95;;
17696;SDS011;8967;47.984;7.842;2022-09-14T11:03:38;5.45;;;3.10;;
17696;SDS011;8967;47.984;7.842;2022-09-14T11:06:24;4.68;;;3.08;;
17696;SDS011;8967;47.984;7.842;2022-09-14T11:08:58;4.97;;;2.97;;
17696;SDS011;8967;47.984;7.842;2022-09-14T11:11:34;6.93;;;3.22;;
17696;SDS011;8967;47.984;7.842;2022-09-14T11:14:15;3.13;;;2.80;;
17696;SDS011;8967;47.984;7.842;2022-09-14T11:17:01;6.53;;;2.97;;
17696;SDS011;8967;47.984;7.842;2022-09-14T11:19:40;6.25;;;3.17;;
17696;SDS011;8967;47.984;7.842;2022-09-14T11:22:15;9.05;;;3.92;;
17696;SDS011;8967;47.984;7.842;2022-09-14T11:24:49;8.68;;;3.25;;
17696;SDS011;8967;47.984;7.842;2022-09-14T11:27:23;7.30;;;3.53;;
17696;SDS011;8967;47.984;7.842;2022-09-14T11:29:54;8.05;;;3.58;;
17696;SDS011;8967;47.984;7.842;2022-09-14T11:32:26;6.05;;;3.70;;
17696;SDS011;8967;47.984;7.842;2022-09-14T11:34:57;9.60;;;3.50;;
17696;SDS011;8967;47.984;7.842;2022-09-14T11:37:39;10.02;;;3.85;;
17696;SDS011;8967;47.984;7.842;2022-09-14T11:40:13;6.68;;;3.08;;
17696;SDS011;8967;47.984;7.842;2022-09-14T11:42:47;7.88;;;3.72;;
17696;SDS011;8967;47.984;7.842;2022-09-14T11:45:19;8.15;;;3.42;;
17696;SDS011;8967;47.984;7.842;2022-09-14T11:47:52;5.85;;;3.50;;
17696;SDS011;8967;47.984;7.842;2022-09-14T11:50:24;6.53;;;3.95;;
17696;SDS011;8967;47.984;7.842;2022-09-14T11:52:57;6.57;;;3.22;;
17696;SDS011;8967;47.984;7.842;2022-09-14T11:55:34;7.65;;;3.35;;
17696;SDS011;8967;47.984;7.842;2022-09-14T11:58:06;5.70;;;3.47;;
17696;SDS011;8967;47.984;7.842;2022-09-14T12:03:57;10.15;;;3.40;;
17696;SDS011;8967;47.984;7.842;2022-09-14T12:06:42;5.43;;;3.20;;
17696;SDS011;8967;47.984;7.842;2022-09-14T12:09:37;5.32;;;2.92;;
17696;SDS011;8967;47.984;7.842;2022-09-14T12:14:59;4.90;;;2.97;;
17696;SDS011;8967;47.984;7.842;2022-09-14T12:17:29;3.70;;;3.03;;
17696;SDS011;8967;47.984;7.842;2022-09-14T12:20:24;4.40;;;3.38;;
17696;SDS011;8967;47.984;7.842;2022-09-14T12:23:04;4.60;;;3.30;;
17696;SDS011;8967;47.984;7.842;2022-09-14T12:25:53;9.80;;;3.78;;
17696;SDS011;8967;47.984;7.842;2022-09-14T12:28:26;6.20;;;3.53;;
17696;SDS011;8967;47.984;7.842;2022-09-14T12:36:55;7.15;;;3.78;;
17696;SDS011;8967;47.984;7.842;2022-09-14T12:39:25;12.73;;;3.80;;
17696;SDS011;8967;47.984;7.842;2022-09-14T12:44:46;6.90;;;3.97;;
17696;SDS011;8967;47.984;7.842;2022-09-14T12:50:19;5.50;;;3.60;;
17696;SDS011;8967;47.984;7.842;2022-09-14T12:52:53;8.38;;;3.75;;
17696;SDS011;8967;47.984;7.842;2022-09-14T12:55:35;13.75;;;5.72;;
17696;SDS011;8967;47.984;7.842;2022-09-14T12:58:12;11.40;;;5.60;;
17696;SDS011;8967;47.984;7.842;2022-09-14T13:00:54;7.80;;;3.80;;
17696;SDS011;8967;47.984;7.842;2022-09-14T13:03:45;5.85;;;3.05;;
17696;SDS011;8967;47.984;7.842;2022-09-14T13:06:14;6.75;;;3.25;;
17696;SDS011;8967;47.984;7.842;2022-09-14T13:08:43;5.88;;;3.42;;
17696;SDS011;8967;47.984;7.842;2022-09-14T13:11:17;9.45;;;3.25;;
17696;SDS011;8967;47.984;7.842;2022-09-14T13:13:49;8.50;;;3.40;;
17696;SDS011;8967;47.984;7.842;2022-09-14T13:16:20;3.38;;;2.67;;
17696;SDS011;8967;47.984;7.842;2022-09-14T13:18:59;7.05;;;3.33;;
17696;SDS011;8967;47.984;7.842;2022-09-14T13:21:29;6.38;;;3.45;;
17696;SDS011;8967;47.984;7.842;2022-09-14T13:23:56;9.40;;;3.05;;
17696;SDS011;8967;47.984;7.842;2022-09-14T13:26:24;5.78;;;3.10;;
17696;SDS011;8967;47.984;7.842;2022-09-14T13:28:53;4.15;;;2.63;;
17696;SDS011;8967;47.984;7.842;2022-09-14T13:31:26;10.70;;;3.53;;
17696;SDS011;8967;47.984;7.842;2022-09-14T13:33:58;3.15;;;2.70;;
17696;SDS011;8967;47.984;7.842;2022-09-14T13:36:27;4.32;;;2.30;;
17696;SDS011;8967;47.984;7.842;2022-09-14T13:38:56;6.28;;;2.53;;
17696;SDS011;8967;47.984;7.842;2022-09-14T13:41:26;4.20;;;2.13;;
17696;SDS011;8967;47.984;7.842;2022-09-14T13:43:56;3.20;;;2.30;;
17696;SDS011;8967;47.984;7.842;2022-09-14T13:46:26;6.18;;;3.05;;
17696;SDS011;8967;47.984;7.842;2022-09-14T13:48:53;5.03;;;2.30;;
17696;SDS011;8967;47.984;7.842;2022-09-14T13:51:22;3.22;;;2.50;;
17696;SDS011;8967;47.984;7.842;2022-09-14T13:53:51;3.05;;;2.00;;
17696;SDS011;8967;47.984;7.842;2022-09-14T13:56:21;5.05;;;2.95;;
17696;SDS011;8967;47.984;7.842;2022-09-14T14:01:42;5.35;;;2.13;;
17696;SDS011;8967;47.984;7.842;2022-09-14T14:04:28;4.65;;;1.98;;
17696;SDS011;8967;47.984;7.842;2022-09-14T14:07:03;5.22;;;2.20;;
17696;SDS011;8967;47.984;7.842;2022-09-14T14:09:38;2.97;;;1.83;;
17696;SDS011;8967;47.984;7.842;2022-09-14T14:12:07;5.82;;;1.63;;
17696;SDS011;8967;47.984;7.842;2022-09-14T14:14:36;4.25;;;1.90;;
17696;SDS011;8967;47.984;7.842;2022-09-14T14:19:57;2.97;;;1.38;;
17696;SDS011;8967;47.984;7.842;2022-09-14T14:22:26;3.05;;;1.38;;
17696;SDS011;8967;47.984;7.842;2022-09-14T14:24:58;2.10;;;1.30;;
17696;SDS011;8967;47.984;7.842;2022-09-14T14:27:29;2.58;;;1.10;;
17696;SDS011;8967;47.984;7.842;2022-09-14T14:29:57;2.00;;;1.30;;
17696;SDS011;8967;47.984;7.842;2022-09-14T14:32:26;5.03;;;1.50;;
17696;SDS011;8967;47.984;7.842;2022-09-14T14:34:56;4.47;;;1.45;;
17696;SDS011;8967;47.984;7.842;2022-09-14T14:37:29;3.28;;;1.40;;
17696;SDS011;8967;47.984;7.842;2022-09-14T14:39:57;3.92;;;1.33;;
17696;SDS011;8967;47.984;7.842;2022-09-14T14:42:24;2.60;;;1.20;;
17696;SDS011;8967;47.984;7.842;2022-09-14T14:44:51;1.75;;;1.05;;
17696;SDS011;8967;47.984;7.842;2022-09-14T14:47:18;1.25;;;1.15;;
17696;SDS011;8967;47.984;7.842;2022-09-14T14:49:48;1.60;;;1.20;;
17696;SDS011;8967;47.984;7.842;2022-09-14T14:52:15;3.17;;;1.27;;
17696;SDS011;8967;47.984;7.842;2022-09-14T14:54:42;5.05;;;1.27;;
17696;SDS011;8967;47.984;7.842;2022-09-14T14:57:09;5.30;;;1.42;;
17696;SDS011;8967;47.984;7.842;2022-09-14T14:59:38;1.48;;;1.38;;
17696;SDS011;8967;47.984;7.842;2022-09-14T15:02:05;3.05;;;1.40;;
17696;SDS011;8967;47.984;7.842;2022-09-14T15:04:34;6.55;;;1.50;;
17696;SDS011;8967;47.984;7.842;2022-09-14T15:07:02;5.85;;;1.40;;
17696;SDS011;8967;47.984;7.842;2022-09-14T15:09:29;4.35;;;1.30;;
17696;SDS011;8967;47.984;7.842;2022-09-14T15:11:56;4.15;;;1.33;;
17696;SDS011;8967;47.984;7.842;2022-09-14T15:14:24;3.00;;;1.30;;
17696;SDS011;8967;47.984;7.842;2022-09-14T15:16:51;4.22;;;1.40;;
17696;SDS011;8967;47.984;7.842;2022-09-14T15:19:21;3.20;;;1.35;;
17696;SDS011;8967;47.984;7.842;2022-09-14T15:21:48;2.30;;;1.20;;
17696;SDS011;8967;47.984;7.842;2022-09-14T15:24:17;2.13;;;1.50;;
17696;SDS011;8967;47.984;7.842;2022-09-14T15:26:44;1.58;;;1.40;;
17696;SDS011;8967;47.984;7.842;2022-09-14T15:29:11;1.90;;;1.50;;
17696;SDS011;8967;47.984;7.842;2022-09-14T15:31:38;1.52;;;1.30;;
17696;SDS011;8967;47.984;7.842;2022-09-14T15:34:06;2.08;;;1.40;;
17696;SDS011;8967;47.984;7.842;2022-09-14T15:36:36;3.42;;;1.42;;
17696;SDS011;8967;47.984;7.842;2022-09-14T15:39:04;2.55;;;1.35;;
17696;SDS011;8967;47.984;7.842;2022-09-14T15:41:33;3.05;;;1.40;;
17696;SDS011;8967;47.984;7.842;2022-09-14T15:44:00;3.03;;;1.30;;
17696;SDS011;8967;47.984;7.842;2022-09-14T15:46:28;4.82;;;1.58;;
17696;SDS011;8967;47.984;7.842;2022-09-14T15:48:56;2.05;;;1.15;;
17696;SDS011;8967;47.984;7.842;2022-09-14T15:51:23;6.90;;;1.83;;
17696;SDS011;8967;47.984;7.842;2022-09-14T15:53:50;6.50;;;3.00;;